Time;durP1;ratioP1;P1;durP2;ratioP2;P2;SDS_P1;SDS_P2;PMS_P1;PMS_P2;Temp;Humidity;BMP_temperature;BMP_pressure;BME280_temperature;BME280_humidity;BME280_pressure;Samples;Min_cycle;Max_cycle;Signal;HPM_P1;HPM_P2
2021/04/15 00:01:54;;;;;;;4.30;3.27;;;7.30;56.10;;;;;;5049656;28;20253;-87
2021/04/15 00:04:19;;;;;;;3.43;3.10;;;7.20;56.20;;;;;;5048863;28;20756;-87
2021/04/15 00:06:49;;;;;;;5.20;3.40;;;7.00;56.70;;;;;;5066960;28;20206;-88
2021/04/15 00:09:20;;;;;;;4.57;3.30;;;6.90;57.00;;;;;;5066773;28;20168;-87
2021/04/15 00:11:47;;;;;;;3.77;3.33;;;6.50;57.70;;;;;;5048860;28;20201;-86
2021/04/15 00:14:16;;;;;;;4.07;2.97;;;6.30;58.10;;;;;;5048651;28;20180;-88
2021/04/15 00:16:43;;;;;;;5.20;3.63;;;6.20;58.80;;;;;;5048676;28;20517;-87
2021/04/15 00:19:10;;;;;;;3.53;3.20;;;6.30;58.80;;;;;;5047561;28;20279;-88
2021/04/15 00:21:35;;;;;;;3.07;2.77;;;6.40;58.60;;;;;;5048892;28;20208;-87
2021/04/15 00:24:02;;;;;;;4.73;3.10;;;6.50;58.50;;;;;;5048406;28;20204;-86
2021/04/15 00:26:29;;;;;;;3.57;3.27;;;6.60;58.40;;;;;;5066207;28;20175;-87
2021/04/15 00:28:56;;;;;;;4.33;3.10;;;6.70;58.20;;;;;;5048529;28;20195;-89
2021/04/15 00:31:24;;;;;;;3.23;2.93;;;6.60;58.10;;;;;;5015733;28;20196;-87
2021/04/15 00:33:50;;;;;;;4.43;3.50;;;6.70;58.00;;;;;;5066739;28;20180;-86
2021/04/15 00:36:16;;;;;;;4.60;3.63;;;6.70;57.70;;;;;;5048139;28;20203;-87
2021/04/15 00:38:42;;;;;;;5.17;3.27;;;6.70;57.80;;;;;;5048401;28;20192;-87
2021/04/15 00:41:09;;;;;;;3.80;3.50;;;6.70;57.80;;;;;;5066172;28;20202;-87
2021/04/15 00:43:39;;;;;;;4.70;4.20;;;6.60;57.80;;;;;;5031865;28;20183;-87
2021/04/15 00:46:31;;;;;;;4.03;3.40;;;6.30;58.40;;;;;;5048370;28;20197;-87
2021/04/15 00:48:58;;;;;;;3.80;3.40;;;6.10;59.20;;;;;;5040051;28;20690;-87
2021/04/15 00:51:30;;;;;;;4.63;3.77;;;5.90;60.20;;;;;;5031641;28;20544;-88
2021/04/15 00:54:05;;;;;;;5.30;3.60;;;6.00;60.20;;;;;;5048199;28;20173;-87
2021/04/15 00:56:32;;;;;;;4.13;3.40;;;6.10;60.10;;;;;;5048034;28;20666;-88
2021/04/15 00:58:58;;;;;;;4.73;3.57;;;6.20;59.80;;;;;;5031446;28;20524;-89
2021/04/15 01:01:24;;;;;;;3.57;3.20;;;6.20;59.60;;;;;;5047908;28;20200;-88
2021/04/15 01:03:50;;;;;;;3.57;3.10;;;6.20;59.80;;;;;;5065746;28;20243;-87
2021/04/15 01:06:16;;;;;;;3.70;3.27;;;6.20;59.70;;;;;;5047525;28;20176;-89
2021/04/15 01:08:42;;;;;;;4.17;3.70;;;6.20;59.50;;;;;;5048345;28;20173;-90
2021/04/15 01:11:21;;;;;;;3.80;3.17;;;6.20;59.40;;;;;;5066839;28;20168;-87
2021/04/15 01:14:10;;;;;;;3.27;2.97;;;6.10;59.80;;;;;;5048005;28;20179;-87
2021/04/15 01:16:47;;;;;;;5.90;3.77;;;6.20;59.70;;;;;;5047721;28;20184;-88
2021/04/15 01:19:22;;;;;;;3.80;3.37;;;6.20;59.60;;;;;;5047596;28;20179;-87
2021/04/15 01:21:57;;;;;;;3.73;3.40;;;6.20;59.70;;;;;;5047554;28;20662;-87
2021/04/15 01:24:41;;;;;;;4.97;4.07;;;6.20;59.60;;;;;;5047516;28;20195;-87
2021/04/15 01:27:32;;;;;;;3.93;3.53;;;6.30;59.70;;;;;;5047617;28;20186;-88
2021/04/15 01:30:03;;;;;;;4.43;4.03;;;6.20;59.80;;;;;;5047429;28;20173;-87
2021/04/15 01:33:00;;;;;;;5.17;4.07;;;6.20;60.00;;;;;;5047029;28;20249;-87
2021/04/15 01:35:52;;;;;;;4.80;4.30;;;6.20;60.30;;;;;;5047001;28;20179;-90
2021/04/15 01:38:35;;;;;;;4.70;3.80;;;6.00;60.70;;;;;;5033055;28;20177;-87
2021/04/15 01:41:15;;;;;;;5.93;4.33;;;6.00;60.70;;;;;;5065357;28;20160;-87
2021/04/15 01:43:46;;;;;;;4.90;3.90;;;5.90;61.30;;;;;;5047547;28;20175;-87
2021/04/15 01:46:13;;;;;;;4.53;4.13;;;5.70;61.70;;;;;;5047415;28;20164;-88
2021/04/15 01:48:47;;;;;;;4.30;3.90;;;5.70;61.90;;;;;;5047239;28;20187;-87
2021/04/15 01:51:27;;;;;;;4.57;3.60;;;5.60;62.60;;;;;;5046727;28;20204;-88
2021/04/15 01:53:59;;;;;;;4.40;4.00;;;5.60;61.70;;;;;;5046951;28;20179;-89
2021/04/15 01:56:46;;;;;;;4.97;4.53;;;5.70;61.60;;;;;;5046541;28;20624;-88
2021/04/15 01:59:34;;;;;;;5.13;4.17;;;5.20;63.50;;;;;;5064915;28;20156;-87
2021/04/15 02:02:09;;;;;;;5.97;4.03;;;5.00;64.20;;;;;;5065018;28;20199;-87
2021/04/15 02:04:44;;;;;;;6.03;5.03;;;5.00;64.20;;;;;;5047076;28;20306;-87
2021/04/15 02:07:15;;;;;;;4.80;3.90;;;5.10;65.40;;;;;;5047250;28;20191;-88
2021/04/15 02:09:43;;;;;;;4.57;4.17;;;5.00;66.10;;;;;;5047365;28;20245;-87
2021/04/15 02:12:23;;;;;;;7.87;4.40;;;5.10;64.60;;;;;;5065138;28;20196;-90
2021/04/15 02:15:19;;;;;;;4.37;3.97;;;5.20;64.30;;;;;;5031180;28;20227;-88
2021/04/15 02:17:47;;;;;;;5.43;3.70;;;5.30;64.00;;;;;;5065234;28;20200;-90
2021/04/15 02:20:21;;;;;;;4.43;4.03;;;5.40;63.40;;;;;;5031371;28;20639;-87
2021/04/15 02:22:49;;;;;;;4.30;3.77;;;5.50;63.00;;;;;;5047174;28;20269;-88
2021/04/15 02:25:24;;;;;;;5.13;4.63;;;5.50;62.60;;;;;;5048051;28;20204;-87
2021/04/15 02:27:59;;;;;;;5.17;4.70;;;5.50;62.90;;;;;;5067891;28;20631;-88
2021/04/15 02:30:30;;;;;;;4.70;4.30;;;5.60;62.90;;;;;;5055108;28;20172;-88
2021/04/15 02:33:26;;;;;;;5.57;5.07;;;5.60;62.80;;;;;;5042212;28;20225;-88
2021/04/15 02:36:03;;;;;;;6.47;5.03;;;5.70;62.80;;;;;;5075385;28;20239;-88
2021/04/15 02:38:32;;;;;;;4.87;4.47;;;5.60;62.90;;;;;;5046178;28;20176;-88
2021/04/15 02:41:02;;;;;;;5.53;5.03;;;5.60;62.80;;;;;;5046089;28;20180;-88
2021/04/15 02:43:39;;;;;;;5.80;5.20;;;5.60;63.10;;;;;;5030175;28;20192;-88
2021/04/15 02:46:45;;;;;;;5.97;5.37;;;5.60;63.40;;;;;;5046620;28;20202;-87
2021/04/15 02:49:14;;;;;;;4.80;4.37;;;5.50;63.40;;;;;;5046054;28;20524;-88
2021/04/15 02:52:08;;;;;;;4.87;4.40;;;5.50;63.40;;;;;;5029874;28;20200;-87
2021/04/15 02:54:44;;;;;;;5.00;4.50;;;5.60;63.10;;;;;;5031185;28;20181;-87
2021/04/15 02:57:25;;;;;;;5.27;4.80;;;5.60;63.00;;;;;;5047000;28;20176;-87
2021/04/15 02:59:58;;;;;;;5.17;4.67;;;5.60;63.10;;;;;;5046670;28;20214;-87
2021/04/15 03:02:33;;;;;;;5.17;4.60;;;5.60;63.10;;;;;;5046305;28;20620;-87
2021/04/15 03:05:08;;;;;;;5.07;4.63;;;5.50;63.20;;;;;;5064529;28;20238;-87
2021/04/15 03:07:36;;;;;;;6.50;4.90;;;5.50;63.30;;;;;;5046501;28;20231;-87
2021/04/15 03:10:03;;;;;;;5.37;4.87;;;5.60;63.10;;;;;;5064578;28;20192;-87
2021/04/15 03:12:56;;;;;;;6.47;5.33;;;5.60;62.60;;;;;;5029438;28;20268;-90
2021/04/15 03:15:26;;;;;;;5.77;5.27;;;5.60;62.70;;;;;;5047007;28;20206;-87
2021/04/15 03:17:58;;;;;;;7.27;5.03;;;5.60;63.10;;;;;;5047667;28;20233;-87
2021/04/15 03:20:42;;;;;;;5.43;4.93;;;5.30;63.70;;;;;;5047978;28;20177;-87
2021/04/15 03:23:25;;;;;;;6.23;5.63;;;5.00;64.50;;;;;;5060804;28;20188;-88
2021/04/15 03:25:55;;;;;;;5.00;4.60;;;4.90;65.20;;;;;;5057628;28;20234;-88
2021/04/15 03:28:39;;;;;;;5.07;4.57;;;4.80;65.40;;;;;;5036714;28;20248;-87
2021/04/15 03:31:14;;;;;;;6.03;5.47;;;4.80;66.00;;;;;;5046546;28;20176;-87
2021/04/15 03:33:49;;;;;;;6.07;4.83;;;4.80;66.40;;;;;;5063730;28;20172;-87
2021/04/15 03:36:51;;;;;;;5.50;4.97;;;4.90;66.20;;;;;;5030524;28;20184;-87
2021/04/15 03:39:24;;;;;;;5.23;4.83;;;4.80;66.10;;;;;;5014828;28;20195;-87
2021/04/15 03:41:54;;;;;;;5.90;5.30;;;4.80;66.20;;;;;;5045828;28;20200;-88
2021/04/15 03:44:38;;;;;;;5.30;4.77;;;4.80;66.20;;;;;;5046001;28;20235;-89
2021/04/15 03:47:12;;;;;;;5.93;4.87;;;4.90;65.90;;;;;;5045935;28;20173;-88
2021/04/15 03:49:51;;;;;;;5.77;4.87;;;4.90;65.00;;;;;;5047711;28;20216;-89
2021/04/15 03:52:41;;;;;;;5.50;5.00;;;5.00;65.00;;;;;;5033180;28;20330;-88
2021/04/15 03:55:20;;;;;;;7.13;5.33;;;5.00;65.20;;;;;;5036185;28;20214;-88
2021/04/15 03:57:48;;;;;;;6.37;5.33;;;5.00;64.80;;;;;;5049651;28;20218;-90
2021/04/15 04:00:21;;;;;;;6.23;5.63;;;4.90;65.50;;;;;;5032988;28;20669;-89
2021/04/15 04:02:55;;;;;;;6.07;5.47;;;4.70;65.40;;;;;;5050927;28;20215;-87
2021/04/15 04:05:47;;;;;;;5.37;4.87;;;4.70;65.40;;;;;;5032930;28;20208;-88
2021/04/15 04:08:24;;;;;;;6.03;5.13;;;4.70;65.50;;;;;;5048692;28;20643;-88
2021/04/15 04:10:54;;;;;;;9.17;6.07;;;4.70;65.40;;;;;;5048886;28;20176;-89
2021/04/15 04:14:01;;;;;;;6.03;5.10;;;4.80;65.30;;;;;;5048816;28;20247;-88
2021/04/15 04:16:57;;;;;;;6.20;5.60;;;4.80;65.00;;;;;;5048386;28;20267;-88
2021/04/15 04:19:45;;;;;;;6.07;5.43;;;4.70;66.30;;;;;;5062940;28;20203;-89
2021/04/15 04:22:11;;;;;;;7.33;6.63;;;4.80;65.70;;;;;;5049065;28;20218;-87
2021/04/15 04:25:10;;;;;;;6.03;5.53;;;4.80;66.50;;;;;;5049371;28;20264;-88
2021/04/15 04:27:41;;;;;;;6.47;5.80;;;4.60;66.90;;;;;;5048657;28;20172;-88
2021/04/15 04:30:18;;;;;;;7.00;6.30;;;4.50;68.00;;;;;;5066871;28;20183;-88
2021/04/15 04:32:46;;;;;;;8.00;6.33;;;4.50;68.20;;;;;;5032727;28;20203;-88
2021/04/15 04:35:20;;;;;;;7.03;6.43;;;4.40;68.70;;;;;;5032097;28;20245;-88
2021/04/15 04:37:50;;;;;;;6.30;5.70;;;4.30;69.30;;;;;;5066342;28;20177;-89
2021/04/15 04:40:20;;;;;;;7.80;5.87;;;4.20;69.20;;;;;;5032422;28;20211;-87
2021/04/15 04:42:54;;;;;;;7.90;6.60;;;4.10;70.30;;;;;;5049403;28;20210;-88
2021/04/15 04:45:22;;;;;;;7.43;6.73;;;4.00;70.70;;;;;;5049174;28;20211;-87
2021/04/15 04:48:10;;;;;;;8.33;6.30;;;4.00;71.20;;;;;;5016689;28;20203;-87
2021/04/15 04:50:49;;;;;;;8.23;6.97;;;3.90;71.30;;;;;;5048960;28;20176;-88
2021/04/15 04:53:27;;;;;;;7.03;6.03;;;4.00;70.60;;;;;;5048724;28;20223;-87
2021/04/15 04:56:08;;;;;;;7.10;6.37;;;4.10;70.60;;;;;;5031802;28;20177;-86
2021/04/15 04:58:35;;;;;;;6.57;5.87;;;4.20;70.10;;;;;;5047550;28;20176;-86
2021/04/15 05:01:02;;;;;;;6.80;6.20;;;4.10;70.10;;;;;;5046311;28;20192;-85
2021/04/15 05:03:31;;;;;;;6.73;6.13;;;4.30;69.80;;;;;;5064351;28;20204;-85
2021/04/15 05:06:02;;;;;;;7.17;6.47;;;4.30;69.50;;;;;;5065098;28;20228;-86
2021/04/15 05:08:34;;;;;;;7.13;6.47;;;4.30;70.20;;;;;;5065466;28;20267;-85
2021/04/15 05:11:00;;;;;;;7.07;6.37;;;4.30;69.50;;;;;;5065042;28;20191;-85
2021/04/15 05:13:29;;;;;;;7.50;6.80;;;4.30;69.50;;;;;;5048004;28;20179;-85
2021/04/15 05:16:00;;;;;;;9.33;7.00;;;4.20;70.50;;;;;;5064894;28;20239;-86
2021/04/15 05:18:26;;;;;;;8.37;7.00;;;4.10;70.80;;;;;;5047817;28;20192;-90
2021/04/15 05:21:09;;;;;;;11.03;8.23;;;4.10;70.80;;;;;;5064748;28;20183;-86
2021/04/15 05:23:55;;;;;;;8.33;7.43;;;4.00;71.40;;;;;;5056811;28;20189;-86
2021/04/15 05:26:27;;;;;;;9.47;8.47;;;3.90;72.30;;;;;;5064671;28;20172;-87
2021/04/15 05:29:03;;;;;;;9.67;8.23;;;3.70;73.50;;;;;;5029636;28;20185;-87
2021/04/15 05:31:32;;;;;;;8.20;7.40;;;3.70;73.60;;;;;;5064041;28;20196;-86
2021/04/15 05:34:01;;;;;;;8.83;7.50;;;3.70;73.40;;;;;;5046505;28;20218;-88
2021/04/15 05:36:37;;;;;;;7.43;6.73;;;3.80;73.40;;;;;;5042305;28;20192;-88
2021/04/15 05:39:08;;;;;;;7.63;6.83;;;3.80;73.00;;;;;;5046888;28;20168;-85
2021/04/15 05:41:45;;;;;;;9.00;8.13;;;3.90;72.80;;;;;;5035418;28;20216;-86
2021/04/15 05:44:32;;;;;;;8.83;7.93;;;3.70;73.70;;;;;;5062159;28;20609;-85
2021/04/15 05:46:59;;;;;;;8.33;7.53;;;3.70;74.40;;;;;;5063812;28;20172;-88
2021/04/15 05:49:30;;;;;;;9.67;8.67;;;3.70;74.20;;;;;;5062240;28;20184;-88
2021/04/15 05:52:07;;;;;;;9.47;8.33;;;3.60;74.60;;;;;;5042471;28;20227;-88
2021/04/15 05:54:35;;;;;;;8.77;7.87;;;3.60;74.70;;;;;;5044098;28;20231;-87
2021/04/15 05:57:30;;;;;;;10.00;9.00;;;3.60;74.80;;;;;;5029840;28;20184;-88
2021/04/15 06:00:08;;;;;;;9.67;8.77;;;3.60;75.70;;;;;;5057361;28;20189;-88
2021/04/15 06:02:40;;;;;;;8.97;8.13;;;3.50;75.60;;;;;;5055124;28;20667;-87
2021/04/15 06:05:16;;;;;;;9.27;8.27;;;3.60;75.50;;;;;;5059309;28;20199;-88
2021/04/15 06:07:44;;;;;;;10.23;7.80;;;3.50;76.00;;;;;;5058525;28;20172;-88
2021/04/15 06:10:12;;;;;;;9.80;8.27;;;3.70;75.50;;;;;;5052719;28;20214;-88
2021/04/15 06:12:52;;;;;;;10.13;8.40;;;3.60;75.90;;;;;;5054756;28;20217;-88
2021/04/15 06:15:23;;;;;;;9.97;8.50;;;3.70;75.70;;;;;;5038249;28;20193;-88
2021/04/15 06:18:04;;;;;;;9.93;7.83;;;3.60;75.80;;;;;;5060202;28;20184;-87
2021/04/15 06:20:55;;;;;;;8.53;7.73;;;3.60;75.60;;;;;;5055497;28;20180;-88
2021/04/15 06:23:58;;;;;;;8.70;7.90;;;3.70;75.50;;;;;;5044074;28;20212;-89
2021/04/15 06:26:32;;;;;;;9.10;7.67;;;3.70;75.70;;;;;;5053274;28;20191;-87
2021/04/15 06:29:03;;;;;;;7.83;6.87;;;3.60;75.80;;;;;;5040564;28;20649;-87
2021/04/15 06:31:37;;;;;;;8.03;7.13;;;3.60;76.10;;;;;;5056167;28;20276;-88
2021/04/15 06:34:07;;;;;;;8.43;6.87;;;3.60;76.30;;;;;;5030299;28;20252;-89
2021/04/15 06:36:54;;;;;;;8.50;7.60;;;3.60;76.40;;;;;;5049707;28;20200;-88
2021/04/15 06:39:35;;;;;;;9.37;7.20;;;3.60;76.40;;;;;;5028574;28;20211;-88
2021/04/15 06:42:28;;;;;;;8.60;7.50;;;3.50;76.40;;;;;;5022160;28;20270;-90
2021/04/15 06:45:21;;;;;;;8.77;6.93;;;3.50;76.70;;;;;;5057992;28;20254;-87
2021/04/15 06:47:50;;;;;;;12.20;7.67;;;3.50;76.80;;;;;;5045853;28;20212;-88
2021/04/15 06:50:41;;;;;;;7.23;6.53;;;3.60;76.30;;;;;;5053648;28;20184;-89
2021/04/15 06:53:24;;;;;;;7.50;6.10;;;3.70;75.30;;;;;;5048350;28;20220;-88
2021/04/15 06:56:10;;;;;;;7.50;6.37;;;3.90;74.60;;;;;;5066661;28;20236;-88
2021/04/15 06:58:42;;;;;;;7.70;7.00;;;4.00;73.80;;;;;;5060540;28;20185;-87
2021/04/15 07:01:31;;;;;;;8.67;6.17;;;4.10;73.40;;;;;;5054378;28;20627;-87
2021/04/15 07:04:09;;;;;;;8.87;6.77;;;4.20;72.60;;;;;;5036089;28;20251;-87
2021/04/15 07:06:55;;;;;;;6.53;6.00;;;4.40;72.20;;;;;;5033841;28;20184;-88
2021/04/15 07:09:46;;;;;;;6.17;5.57;;;4.50;70.50;;;;;;5040938;28;20224;-89
2021/04/15 07:12:36;;;;;;;6.50;5.50;;;4.60;70.30;;;;;;5054328;28;20268;-88
2021/04/15 07:15:22;;;;;;;5.87;5.27;;;4.60;69.10;;;;;;5062325;28;20184;-88
2021/04/15 07:18:13;;;;;;;7.73;4.97;;;4.60;69.20;;;;;;5059456;28;20211;-88
2021/04/15 07:21:00;;;;;;;7.17;4.80;;;4.60;69.70;;;;;;5054596;28;20252;-88
2021/04/15 07:23:56;;;;;;;5.93;4.87;;;4.60;68.30;;;;;;5051349;28;20247;-88
2021/04/15 07:26:51;;;;;;;5.97;5.10;;;4.70;68.50;;;;;;5056741;28;20180;-88
2021/04/15 07:29:35;;;;;;;6.83;5.87;;;4.80;68.30;;;;;;5054786;28;20544;-88
2021/04/15 07:32:14;;;;;;;6.97;6.27;;;4.60;69.50;;;;;;5063015;28;20207;-89
2021/04/15 07:35:04;;;;;;;6.93;5.73;;;4.60;69.70;;;;;;5063794;28;20183;-89
2021/04/15 07:37:42;;;;;;;7.27;5.93;;;4.80;68.50;;;;;;5050730;28;20256;-88
2021/04/15 07:40:28;;;;;;;6.67;5.97;;;5.10;68.10;;;;;;5058498;28;20198;-89
2021/04/15 07:43:18;;;;;;;6.00;4.70;;;5.20;67.40;;;;;;5054879;28;20212;-89
2021/04/15 07:46:06;;;;;;;8.83;4.87;;;5.10;67.90;;;;;;5064886;28;20242;-88
2021/04/15 07:48:54;;;;;;;6.83;4.50;;;5.30;65.30;;;;;;5060192;28;20274;-90
2021/04/15 07:51:40;;;;;;;6.83;5.30;;;5.40;65.40;;;;;;5057356;28;20232;-90
2021/04/15 07:54:06;;;;;;;4.93;4.07;;;5.40;65.40;;;;;;5056353;28;20196;-87
2021/04/15 07:56:47;;;;;;;5.90;4.70;;;5.60;64.70;;;;;;5056793;28;20204;-87
2021/04/15 07:59:31;;;;;;;6.07;4.80;;;5.80;64.30;;;;;;5062028;28;20186;-89
2021/04/15 08:02:11;;;;;;;4.93;4.43;;;6.00;63.90;;;;;;5057242;28;20208;-87
2021/04/15 08:04:42;;;;;;;6.20;3.93;;;6.20;62.50;;;;;;5033754;28;20684;-90
2021/04/15 08:07:42;;;;;;;4.67;4.27;;;6.10;62.50;;;;;;5055527;28;20189;-88
2021/04/15 08:10:22;;;;;;;5.87;4.30;;;6.20;62.30;;;;;;5058136;28;20821;-88
2021/04/15 08:13:09;;;;;;;5.73;4.43;;;6.30;61.40;;;;;;5062488;28;20219;-89
2021/04/15 08:15:50;;;;;;;9.30;4.27;;;6.30;61.10;;;;;;5055722;28;20184;-90
2021/04/15 08:18:39;;;;;;;6.10;3.60;;;6.30;60.60;;;;;;5052606;28;20199;-89
2021/04/15 08:21:43;;;;;;;4.13;3.70;;;6.40;60.00;;;;;;5054507;28;20323;-89
2021/04/15 08:24:24;;;;;;;5.50;5.00;;;6.60;59.40;;;;;;5058936;28;20539;-88
2021/04/15 08:27:12;;;;;;;5.67;3.93;;;6.70;59.10;;;;;;5053328;28;20192;-88
2021/04/15 08:29:59;;;;;;;4.23;3.83;;;6.80;59.00;;;;;;5060359;28;20193;-89
2021/04/15 08:32:43;;;;;;;7.73;4.57;;;7.10;58.40;;;;;;5034558;28;20220;-88
2021/04/15 08:35:24;;;;;;;5.40;4.00;;;7.20;56.90;;;;;;5059386;28;20181;-88
2021/04/15 08:37:50;;;;;;;5.97;4.00;;;7.10;57.50;;;;;;5047552;28;20192;-88
2021/04/15 08:40:32;;;;;;;5.30;4.33;;;7.30;56.40;;;;;;5057860;28;20243;-89
2021/04/15 08:43:23;;;;;;;7.47;4.23;;;7.50;55.70;;;;;;5054881;28;20214;-88
2021/04/15 08:46:24;;;;;;;5.40;4.13;;;7.70;55.20;;;;;;5058430;28;20670;-88
2021/04/15 08:49:28;;;;;;;5.27;4.13;;;7.90;55.10;;;;;;4978819;28;20261;-89
2021/04/15 08:52:16;;;;;;;8.43;4.10;;;8.10;54.60;;;;;;5029058;28;20671;-88
2021/04/15 08:54:57;;;;;;;4.30;3.90;;;8.20;54.30;;;;;;5052882;28;20199;-88
2021/04/15 08:57:48;;;;;;;6.60;4.00;;;8.40;52.70;;;;;;5051508;28;20280;-89
2021/04/15 09:00:32;;;;;;;5.00;4.00;;;8.70;52.10;;;;;;5054700;28;20597;-88
2021/04/15 09:03:21;;;;;;;6.30;4.07;;;8.80;51.40;;;;;;5053388;28;20228;-88
2021/04/15 09:06:22;;;;;;;4.37;3.47;;;8.90;50.70;;;;;;5055623;28;20216;-91
2021/04/15 09:09:34;;;;;;;5.70;4.37;;;9.10;49.90;;;;;;4978066;28;20231;-88
2021/04/15 09:12:17;;;;;;;5.73;4.67;;;9.20;49.80;;;;;;5052969;28;20604;-88
2021/04/15 09:14:51;;;;;;;5.57;4.27;;;9.40;49.60;;;;;;5055330;28;20666;-87
2021/04/15 09:17:52;;;;;;;6.03;4.17;;;9.60;48.50;;;;;;5055460;28;20190;-89
2021/04/15 09:20:38;;;;;;;8.90;6.60;;;9.60;47.70;;;;;;5056526;28;20207;-88
2021/04/15 09:23:42;;;;;;;14.13;8.47;;;9.50;48.10;;;;;;5052188;28;20197;-88
2021/04/15 09:26:32;;;;;;;12.27;6.07;;;9.10;46.90;;;;;;5057904;28;20200;-87
2021/04/15 09:29:12;;;;;;;7.43;4.90;;;9.00;48.00;;;;;;5056575;28;20207;-87
2021/04/15 09:32:49;;;;;;;10.63;5.40;;;8.70;48.70;;;;;;5054855;28;20207;-86
2021/04/15 09:35:34;;;;;;;7.63;4.60;;;8.70;49.40;;;;;;4972906;28;20197;-88
2021/04/15 09:38:31;;;;;;;14.90;8.60;;;8.70;49.30;;;;;;4983532;28;20191;-89
2021/04/15 09:41:26;;;;;;;12.03;7.27;;;8.70;48.80;;;;;;5045271;28;20944;-88
2021/04/15 09:44:00;;;;;;;5.13;3.80;;;8.50;49.10;;;;;;5050596;28;20180;-89
2021/04/15 09:46:37;;;;;;;3.93;3.20;;;8.50;48.50;;;;;;5053987;28;20219;-89
2021/04/15 09:49:14;;;;;;;3.77;3.40;;;8.60;48.40;;;;;;5057528;28;20184;-88
2021/04/15 09:51:40;;;;;;;6.47;5.73;;;9.10;46.70;;;;;;5054897;28;20208;-90
2021/04/15 09:54:28;;;;;;;4.70;4.10;;;9.70;46.20;;;;;;5051615;28;20196;-90
2021/04/15 09:57:22;;;;;;;5.40;4.50;;;10.00;47.40;;;;;;5048780;28;20520;-90
2021/04/15 10:00:10;;;;;;;3.87;3.47;;;10.50;43.80;;;;;;5050311;28;20199;-88
2021/04/15 10:03:03;;;;;;;4.33;3.90;;;10.50;42.00;;;;;;5049805;28;20678;-87
2021/04/15 10:05:40;;;;;;;4.67;3.43;;;10.10;43.90;;;;;;5050346;28;20200;-87
2021/04/15 10:08:42;;;;;;;4.57;4.07;;;10.00;44.10;;;;;;5055328;28;20253;-88
2021/04/15 10:11:16;;;;;;;6.80;3.33;;;10.00;44.30;;;;;;5039052;28;20204;-87
2021/04/15 10:14:09;;;;;;;4.93;3.60;;;9.90;43.50;;;;;;5049086;28;20184;-88
2021/04/15 10:17:18;;;;;;;5.83;4.10;;;10.30;43.60;;;;;;5051889;28;20181;-88
2021/04/15 10:19:47;;;;;;;4.27;3.70;;;10.60;42.20;;;;;;5056082;28;20213;-87
2021/04/15 10:22:44;;;;;;;5.13;4.23;;;10.60;41.60;;;;;;5064996;28;20213;-87
2021/04/15 10:25:19;;;;;;;5.83;4.57;;;10.10;42.00;;;;;;5056665;28;20220;-88
2021/04/15 10:28:03;;;;;;;4.73;3.80;;;10.30;43.10;;;;;;5039641;28;20239;-88
2021/04/15 10:30:41;;;;;;;6.80;4.23;;;10.60;43.00;;;;;;5047747;28;20181;-87
2021/04/15 10:33:09;;;;;;;4.83;3.77;;;11.00;43.50;;;;;;5039530;28;20208;-88
2021/04/15 10:35:57;;;;;;;5.10;3.40;;;11.10;41.60;;;;;;5047176;28;20533;-89
2021/04/15 10:38:51;;;;;;;4.30;3.30;;;11.30;40.20;;;;;;5056591;28;20181;-86
2021/04/15 10:41:29;;;;;;;5.70;4.03;;;11.00;39.20;;;;;;5055588;28;20226;-89
2021/04/15 10:44:22;;;;;;;5.50;3.23;;;11.10;39.90;;;;;;5053939;28;20192;-89
2021/04/15 10:46:49;;;;;;;3.43;3.10;;;11.60;38.20;;;;;;5050227;28;20723;-89
2021/04/15 10:49:55;;;;;;;3.50;3.20;;;12.10;36.80;;;;;;5031952;28;20187;-88
2021/04/15 10:52:45;;;;;;;4.97;3.40;;;12.20;36.70;;;;;;5054128;28;20196;-85
2021/04/15 10:55:16;;;;;;;5.10;3.37;;;12.50;35.80;;;;;;5054029;28;20604;-91
2021/04/15 10:57:42;;;;;;;5.70;4.07;;;12.70;36.40;;;;;;5043430;28;20187;-85
2021/04/15 11:00:31;;;;;;;5.83;3.70;;;12.90;35.50;;;;;;5052969;28;20188;-87
2021/04/15 11:03:12;;;;;;;4.37;3.33;;;12.80;35.50;;;;;;5051764;28;20243;-88
2021/04/15 11:05:43;;;;;;;7.70;3.60;;;13.10;34.20;;;;;;5055607;28;20675;-89
2021/04/15 11:08:17;;;;;;;4.47;3.40;;;13.20;34.00;;;;;;5052632;28;20232;-86
2021/04/15 11:10:43;;;;;;;5.83;3.80;;;13.50;34.20;;;;;;5054586;28;20177;-87
2021/04/15 11:13:20;;;;;;;3.47;3.17;;;13.50;33.70;;;;;;5053031;28;20211;-88
2021/04/15 11:15:56;;;;;;;5.43;4.97;;;13.20;34.20;;;;;;5049755;28;20195;-89
2021/04/15 11:18:37;;;;;;;5.53;3.77;;;12.90;33.80;;;;;;5047679;28;20181;-89
2021/04/15 11:21:14;;;;;;;6.73;4.17;;;12.60;35.10;;;;;;5052653;28;20264;-88
2021/04/15 11:23:40;;;;;;;5.77;3.70;;;12.10;35.60;;;;;;5048423;28;20177;-86
2021/04/15 11:26:15;;;;;;;5.03;3.40;;;12.10;36.00;;;;;;5054874;28;20241;-85
2021/04/15 11:28:41;;;;;;;4.37;3.97;;;12.00;35.90;;;;;;5054057;28;20180;-88
2021/04/15 11:31:10;;;;;;;4.90;4.03;;;11.60;36.20;;;;;;5051462;28;20334;-86
2021/04/15 11:33:47;;;;;;;4.73;3.90;;;11.40;36.60;;;;;;5054463;28;20181;-88
2021/04/15 11:36:15;;;;;;;5.50;3.97;;;11.30;39.70;;;;;;5051033;28;20187;-89
2021/04/15 11:38:44;;;;;;;4.83;3.77;;;11.00;41.60;;;;;;5050650;28;20200;-89
2021/04/15 11:41:17;;;;;;;6.07;4.13;;;10.80;43.40;;;;;;5054911;28;20188;-88
2021/04/15 11:43:44;;;;;;;4.97;4.10;;;10.70;44.40;;;;;;5051311;28;20181;-88
2021/04/15 11:46:32;;;;;;;4.20;3.80;;;10.50;44.20;;;;;;5051431;28;20208;-89
2021/04/15 11:49:04;;;;;;;5.20;3.87;;;10.50;44.40;;;;;;5047890;28;20193;-89
2021/04/15 11:51:53;;;;;;;4.93;3.77;;;10.70;43.40;;;;;;5055070;28;20211;-90
2021/04/15 11:54:32;;;;;;;4.23;3.67;;;10.80;42.70;;;;;;5044417;28;20276;-87
2021/04/15 11:57:19;;;;;;;4.20;3.50;;;11.30;41.20;;;;;;5051778;28;20191;-90
2021/04/15 12:00:00;;;;;;;4.67;3.67;;;12.00;38.90;;;;;;5053734;28;20208;-90
2021/04/15 12:02:42;;;;;;;3.70;3.23;;;12.60;38.00;;;;;;5051556;28;20267;-87
2021/04/15 12:05:27;;;;;;;4.53;3.10;;;12.90;36.50;;;;;;5035722;28;20204;-88
2021/04/15 12:08:22;;;;;;;3.97;3.37;;;13.60;34.30;;;;;;5055767;28;20255;-88
2021/04/15 12:10:51;;;;;;;3.60;3.30;;;13.50;34.20;;;;;;5048148;28;20394;-87
2021/04/15 12:13:29;;;;;;;4.60;3.03;;;13.40;33.90;;;;;;5051933;28;20288;-89
2021/04/15 12:16:08;;;;;;;3.33;2.63;;;13.30;33.90;;;;;;5054216;28;20202;-90
2021/04/15 12:18:40;;;;;;;3.47;2.97;;;13.60;33.50;;;;;;5047915;28;20226;-89
2021/04/15 12:21:06;;;;;;;5.70;3.30;;;13.90;33.60;;;;;;5070060;28;20176;-88
2021/04/15 12:23:43;;;;;;;3.50;3.20;;;14.40;32.50;;;;;;5067629;28;20190;-89
2021/04/15 12:26:21;;;;;;;3.57;3.23;;;14.40;32.60;;;;;;5058319;28;20226;-86
2021/04/15 12:28:59;;;;;;;3.53;3.23;;;14.00;33.50;;;;;;5053930;28;20182;-90
2021/04/15 12:31:41;;;;;;;3.47;2.73;;;13.90;33.20;;;;;;5048311;28;20297;-89
2021/04/15 12:34:07;;;;;;;3.93;3.20;;;13.80;33.30;;;;;;5055611;28;20177;-89
2021/04/15 12:36:46;;;;;;;4.03;3.30;;;13.60;32.80;;;;;;5056893;28;20485;-90
2021/04/15 12:39:23;;;;;;;7.53;4.33;;;13.90;32.90;;;;;;5034499;28;20182;-88
2021/04/15 12:41:51;;;;;;;3.50;3.17;;;14.60;32.40;;;;;;5055121;28;20214;-88
2021/04/15 12:44:22;;;;;;;5.17;3.17;;;14.60;31.60;;;;;;5053239;28;20213;-86
2021/04/15 12:46:51;;;;;;;4.00;3.57;;;14.40;31.90;;;;;;5051512;28;20216;-85
2021/04/15 12:49:20;;;;;;;4.43;3.00;;;14.60;30.70;;;;;;5055216;28;20192;-88
2021/04/15 12:51:52;;;;;;;3.80;3.10;;;15.00;30.80;;;;;;5047447;28;20211;-89
2021/04/15 12:54:30;;;;;;;4.93;3.10;;;14.60;30.40;;;;;;5030967;28;20706;-88
2021/04/15 12:56:59;;;;;;;3.37;2.87;;;15.40;29.80;;;;;;5064873;28;20187;-88
2021/04/15 12:59:32;;;;;;;2.80;2.60;;;15.20;28.50;;;;;;5058038;28;20270;-89
2021/04/15 13:01:59;;;;;;;2.90;2.70;;;15.20;28.40;;;;;;5026607;28;20211;-88
2021/04/15 13:04:30;;;;;;;6.20;4.70;;;15.30;28.80;;;;;;5058773;28;20220;-88
2021/04/15 13:07:26;;;;;;;3.60;3.30;;;15.90;27.70;;;;;;5028994;28;20188;-88
2021/04/15 13:10:13;;;;;;;3.30;3.10;;;16.20;26.90;;;;;;5043894;28;20238;-88
2021/04/15 13:12:51;;;;;;;3.70;3.17;;;17.00;26.90;;;;;;5047493;28;20217;-87
2021/04/15 13:15:23;;;;;;;3.60;3.30;;;16.80;28.70;;;;;;5055094;28;20493;-88
2021/04/15 13:17:53;;;;;;;5.20;3.40;;;16.40;31.20;;;;;;5053837;28;20193;-86
2021/04/15 13:20:19;;;;;;;4.23;3.03;;;16.40;31.90;;;;;;5047185;28;20181;-88
2021/04/15 13:22:49;;;;;;;3.63;2.90;;;15.70;32.20;;;;;;5050413;28;20212;-92
2021/04/15 13:25:26;;;;;;;3.70;3.40;;;15.40;32.90;;;;;;5054638;28;20213;-87
2021/04/15 13:27:58;;;;;;;6.43;3.37;;;15.30;32.00;;;;;;5031961;28;20219;-86
2021/04/15 13:30:27;;;;;;;7.53;3.20;;;14.50;32.80;;;;;;5051044;28;20186;-87
2021/04/15 13:33:14;;;;;;;4.53;3.07;;;13.80;33.30;;;;;;5051510;28;20202;-86
2021/04/15 13:35:50;;;;;;;4.47;3.80;;;13.40;34.70;;;;;;5058012;28;20209;-88
2021/04/15 13:38:45;;;;;;;5.33;3.30;;;13.60;34.50;;;;;;5052220;28;20194;-87
2021/04/15 13:41:27;;;;;;;4.70;2.83;;;13.70;34.90;;;;;;5049478;28;20189;-91
2021/04/15 13:44:02;;;;;;;6.43;4.17;;;13.30;37.60;;;;;;5039474;28;20185;-88
2021/04/15 13:46:44;;;;;;;5.23;4.83;;;13.50;37.60;;;;;;5058103;28;20190;-83
2021/04/15 13:49:16;;;;;;;3.47;3.20;;;13.50;35.20;;;;;;5059881;28;20206;-85
2021/04/15 13:51:45;;;;;;;3.30;3.00;;;13.30;35.70;;;;;;5064528;28;20207;-85
2021/04/15 13:54:17;;;;;;;10.30;3.57;;;13.40;34.70;;;;;;5050426;28;20230;-86